createdAt,value
2023-05-05T00:00:16.056Z,11.42
2023-05-05T00:02:17.931Z,11.40
2023-05-05T00:04:22.536Z,11.39
2023-05-05T00:06:24.275Z,11.36
2023-05-05T00:08:25.884Z,11.37
2023-05-05T00:10:27.454Z,11.36
2023-05-05T00:12:29.146Z,11.34
2023-05-05T00:14:30.815Z,11.31
2023-05-05T00:16:32.405Z,11.29
2023-05-05T00:18:34.139Z,11.30
2023-05-05T00:20:35.865Z,11.28
2023-05-05T00:22:37.451Z,11.26
2023-05-05T00:24:38.898Z,11.23
2023-05-05T00:26:40.384Z,11.21
2023-05-05T00:28:41.853Z,11.20
2023-05-05T00:30:43.662Z,11.19
2023-05-05T00:32:47.799Z,11.18
2023-05-05T00:34:49.315Z,11.16
2023-05-05T00:36:50.792Z,11.15
2023-05-05T00:38:52.331Z,11.18
2023-05-05T00:40:53.829Z,11.16
2023-05-05T00:42:55.564Z,11.13
2023-05-05T00:44:57.462Z,11.11
2023-05-05T00:46:59.070Z,11.13
2023-05-05T00:49:01.015Z,11.11
2023-05-05T00:51:02.596Z,11.12
2023-05-05T00:53:06.116Z,11.10
2023-05-05T00:55:08.236Z,11.07
2023-05-05T00:57:10.899Z,11.05
2023-05-05T00:59:12.361Z,11.02
2023-05-05T01:01:14.576Z,11.04
2023-05-05T01:03:16.743Z,11.01
2023-05-05T01:05:22.582Z,10.99
2023-05-05T01:07:41.709Z,10.96
2023-05-05T01:10:18.022Z,10.91
2023-05-05T01:12:58.678Z,10.86
2023-05-05T01:15:00.186Z,10.85
2023-05-05T01:17:10.409Z,10.84
2023-05-05T01:19:23.964Z,10.84
2023-05-05T01:21:33.731Z,10.83
2023-05-05T01:23:47.155Z,10.80
2023-05-05T01:26:09.882Z,10.77
2023-05-05T01:28:27.344Z,10.74
2023-05-05T01:30:46.335Z,10.70
2023-05-05T01:32:55.390Z,10.69
2023-05-05T01:35:09.860Z,10.68
2023-05-05T01:37:28.000Z,10.67
2023-05-05T01:39:33.424Z,10.66
2023-05-05T01:41:41.883Z,10.67
2023-05-05T01:43:46.069Z,10.67
2023-05-05T01:45:49.039Z,10.65
2023-05-05T01:47:52.656Z,10.62
2023-05-05T01:49:54.534Z,10.60
2023-05-05T01:51:57.750Z,10.60
2023-05-05T01:54:01.523Z,10.60
2023-05-05T01:56:04.543Z,10.59
2023-05-05T01:58:07.678Z,10.58
2023-05-05T02:00:11.365Z,10.55
2023-05-05T02:02:14.470Z,10.54
2023-05-05T02:04:18.574Z,10.52
2023-05-05T02:06:21.817Z,10.49
2023-05-05T02:08:26.004Z,10.47
2023-05-05T02:10:28.225Z,10.47
2023-05-05T02:12:31.624Z,10.46
2023-05-05T02:14:34.848Z,10.43
2023-05-05T02:16:41.265Z,10.37
2023-05-05T02:18:43.286Z,10.36
2023-05-05T02:20:46.835Z,10.33
2023-05-05T02:22:48.835Z,10.33
2023-05-05T02:24:50.366Z,10.29
2023-05-05T02:26:54.509Z,10.29
2023-05-05T02:29:12.663Z,10.26
2023-05-05T02:31:16.516Z,10.24
2023-05-05T02:33:22.535Z,10.23
2023-05-05T02:35:31.921Z,10.19
2023-05-05T02:37:35.636Z,10.16
2023-05-05T02:39:45.622Z,10.12
2023-05-05T02:41:50.172Z,10.10
2023-05-05T02:43:54.568Z,10.06
2023-05-05T02:45:56.043Z,10.03
2023-05-05T02:47:57.540Z,10.02
2023-05-05T02:49:59.030Z,10.00
2023-05-05T02:52:01.035Z,9.97
2023-05-05T02:54:03.007Z,9.98
2023-05-05T02:56:27.710Z,9.94
2023-05-05T02:58:31.558Z,9.88
2023-05-05T03:00:32.979Z,9.88
2023-05-05T03:02:44.661Z,9.85
2023-05-05T03:04:50.416Z,9.82
2023-05-05T03:06:57.606Z,9.83
2023-05-05T03:09:06.277Z,9.80
2023-05-05T03:11:16.364Z,9.79
2023-05-05T03:13:20.404Z,9.78
2023-05-05T03:15:25.783Z,9.77
2023-05-05T03:17:30.193Z,9.74
2023-05-05T03:19:34.452Z,9.73
2023-05-05T03:21:36.249Z,9.71
2023-05-05T03:23:38.113Z,9.70
2023-05-05T03:25:49.429Z,9.67
2023-05-05T03:27:51.102Z,9.66
2023-05-05T03:29:52.708Z,9.64
2023-05-05T03:31:54.224Z,9.61
2023-05-05T03:33:55.667Z,9.60
2023-05-05T03:35:57.142Z,9.60
2023-05-05T03:37:58.663Z,9.57
2023-05-05T03:40:00.192Z,9.53
2023-05-05T03:42:01.752Z,9.49
2023-05-05T03:44:03.322Z,9.48
2023-05-05T03:46:05.436Z,9.46
2023-05-05T03:48:07.108Z,9.47
2023-05-05T03:50:09.281Z,9.43
2023-05-05T03:52:12.191Z,9.41
2023-05-05T03:54:15.312Z,9.38
2023-05-05T03:56:16.828Z,9.34
2023-05-05T03:58:18.746Z,9.30
2023-05-05T04:00:20.479Z,9.32
2023-05-05T04:02:21.999Z,9.30
2023-05-05T04:04:23.552Z,9.25
2023-05-05T04:06:26.314Z,9.26
2023-05-05T04:08:27.959Z,9.26
2023-05-05T04:10:30.603Z,9.26
2023-05-05T04:12:32.109Z,9.25
2023-05-05T04:14:33.658Z,9.25
2023-05-05T04:16:35.151Z,9.24
2023-05-05T04:18:37.057Z,9.23
2023-05-05T04:20:38.630Z,9.24
2023-05-05T04:22:40.195Z,9.26
2023-05-05T04:24:41.970Z,9.24
2023-05-05T04:26:43.495Z,9.25
2023-05-05T04:28:44.971Z,9.27
2023-05-05T04:30:47.106Z,9.27
2023-05-05T04:32:48.685Z,9.31
2023-05-05T04:34:50.331Z,9.34
2023-05-05T04:36:51.801Z,9.35
2023-05-05T04:38:53.305Z,9.38
2023-05-05T04:40:54.853Z,9.41
2023-05-05T04:42:56.339Z,9.43
2023-05-05T04:44:57.852Z,9.48
2023-05-05T04:47:00.727Z,9.56
2023-05-05T04:49:04.979Z,9.66
2023-05-05T04:51:06.955Z,9.77
2023-05-05T04:53:08.562Z,9.83
2023-05-05T04:55:10.758Z,9.85
2023-05-05T04:57:12.223Z,9.85
2023-05-05T04:59:16.488Z,9.82
2023-05-05T05:01:18.068Z,9.80
2023-05-05T05:03:19.641Z,9.80
2023-05-05T05:05:21.653Z,9.81
2023-05-05T05:07:23.259Z,9.81
2023-05-05T05:09:24.769Z,9.82
2023-05-05T05:11:27.182Z,9.91
2023-05-05T05:13:28.634Z,9.94
2023-05-05T05:15:30.120Z,9.93
2023-05-05T05:17:31.630Z,9.91
2023-05-05T05:19:33.198Z,9.91
2023-05-05T05:21:34.665Z,9.88
2023-05-05T05:23:36.684Z,9.87
2023-05-05T05:25:38.232Z,9.83
2023-05-05T05:27:39.704Z,9.84
2023-05-05T05:29:41.186Z,9.82
2023-05-05T05:31:42.734Z,9.81
2023-05-05T05:33:44.320Z,9.81
2023-05-05T05:35:45.932Z,9.79
2023-05-05T05:37:47.730Z,9.83
2023-05-05T05:39:52.338Z,9.88
2023-05-05T05:41:53.895Z,9.95
2023-05-05T05:43:55.415Z,10.12
2023-05-05T05:45:56.976Z,10.31
2023-05-05T05:47:58.525Z,10.50
2023-05-05T05:50:00.036Z,10.68
2023-05-05T05:52:01.555Z,10.87
2023-05-05T05:54:03.027Z,11.04
2023-05-05T05:56:04.869Z,11.12
2023-05-05T05:58:06.326Z,11.17
2023-05-05T06:00:08.683Z,11.19
2023-05-05T06:02:10.759Z,11.21
2023-05-05T06:04:13.239Z,11.22
2023-05-05T06:06:14.767Z,11.25
2023-05-05T06:08:16.460Z,11.27
2023-05-05T06:10:27.577Z,11.29
2023-05-05T06:12:29.602Z,11.31
2023-05-05T06:14:31.064Z,11.36
2023-05-05T06:16:32.608Z,11.39
2023-05-05T06:18:34.155Z,11.43
2023-05-05T06:20:35.657Z,11.43
2023-05-05T06:22:37.114Z,11.46
2023-05-05T06:24:38.593Z,11.47
2023-05-05T06:26:40.046Z,11.52
2023-05-05T06:28:42.022Z,11.56
2023-05-05T06:30:43.476Z,11.59
2023-05-05T06:32:45.047Z,11.63
2023-05-05T06:34:48.160Z,11.69
2023-05-05T06:36:49.650Z,11.69
2023-05-05T06:38:51.241Z,11.71
2023-05-05T06:40:52.777Z,11.74
2023-05-05T06:42:54.261Z,11.76
2023-05-05T06:44:55.803Z,11.79
2023-05-05T06:46:57.344Z,11.81
2023-05-05T06:48:58.824Z,11.82
2023-05-05T06:51:00.322Z,11.84
2023-05-05T06:53:01.855Z,11.86
2023-05-05T06:55:04.459Z,11.79
2023-05-05T06:57:05.909Z,11.65
2023-05-05T06:59:07.809Z,11.54
2023-05-05T07:01:09.715Z,11.49
2023-05-05T07:03:11.685Z,11.56
2023-05-05T07:05:13.444Z,11.63
2023-05-05T07:07:14.902Z,11.68
2023-05-05T07:09:17.482Z,11.70
2023-05-05T07:11:22.054Z,11.73
2023-05-05T07:13:23.650Z,11.75
2023-05-05T07:15:29.401Z,11.75
2023-05-05T07:17:31.248Z,11.74
2023-05-05T07:19:32.771Z,11.75
2023-05-05T07:21:35.023Z,11.75
2023-05-05T07:23:37.909Z,11.75
2023-05-05T07:25:39.438Z,11.72
2023-05-05T07:27:41.012Z,11.70
2023-05-05T07:29:42.574Z,11.67
2023-05-05T07:31:44.118Z,11.65
2023-05-05T07:33:45.972Z,11.59
2023-05-05T07:35:47.769Z,11.54
2023-05-05T07:37:49.575Z,11.49
2023-05-05T07:39:51.029Z,11.34
2023-05-05T07:41:52.624Z,11.09
2023-05-05T07:43:54.114Z,11.09
2023-05-05T07:45:55.743Z,11.10
2023-05-05T07:47:57.540Z,11.15
2023-05-05T07:49:59.109Z,11.17
2023-05-05T07:52:00.659Z,11.17
2023-05-05T07:54:02.180Z,11.18
2023-05-05T07:56:03.993Z,11.19
2023-05-05T07:58:05.590Z,11.22
2023-05-05T08:00:08.066Z,11.21
2023-05-05T08:02:12.598Z,11.25
2023-05-05T08:04:14.217Z,11.28
2023-05-05T08:06:22.438Z,11.32
2023-05-05T08:08:25.036Z,11.40
2023-05-05T08:10:26.755Z,11.50
2023-05-05T08:12:28.212Z,11.59
2023-05-05T08:14:30.762Z,11.65
2023-05-05T08:16:32.317Z,11.73
2023-05-05T08:18:35.394Z,11.79
2023-05-05T08:20:36.891Z,11.86
2023-05-05T08:22:38.377Z,11.94
2023-05-05T08:24:39.843Z,12.03
2023-05-05T08:26:41.395Z,12.12
2023-05-05T08:28:42.907Z,12.25
2023-05-05T08:30:44.484Z,12.31
2023-05-05T08:32:46.844Z,12.39
2023-05-05T08:34:48.334Z,12.45
2023-05-05T08:36:50.930Z,12.52
2023-05-05T08:38:52.387Z,12.58
2023-05-05T08:40:53.909Z,12.56
2023-05-05T08:42:55.415Z,12.58
2023-05-05T08:44:58.944Z,12.58
2023-05-05T08:47:01.188Z,12.54
2023-05-05T08:49:05.446Z,12.51
2023-05-05T08:51:08.657Z,12.43
2023-05-05T08:53:14.218Z,12.35
2023-05-05T08:55:34.566Z,12.30
2023-05-05T08:57:45.898Z,12.25
2023-05-05T08:59:49.228Z,12.22
2023-05-05T09:01:52.804Z,12.22
2023-05-05T09:03:55.343Z,12.21
2023-05-05T09:05:57.495Z,12.22
2023-05-05T09:07:59.024Z,12.23
2023-05-05T09:10:03.100Z,12.25
2023-05-05T09:12:04.935Z,12.24
2023-05-05T09:14:06.392Z,12.25
2023-05-05T09:16:08.114Z,12.25
2023-05-05T09:18:11.879Z,12.27
2023-05-05T09:20:14.804Z,12.29
2023-05-05T09:22:16.397Z,12.27
2023-05-05T09:24:18.801Z,12.25
2023-05-05T09:26:21.054Z,12.32
2023-05-05T09:28:22.858Z,12.42
2023-05-05T09:30:25.937Z,12.55
2023-05-05T09:32:29.184Z,12.65
2023-05-05T09:34:37.358Z,12.73
2023-05-05T09:36:49.078Z,12.82
2023-05-05T09:39:04.705Z,12.94
2023-05-05T09:41:06.552Z,13.04
2023-05-05T09:43:08.081Z,13.09
2023-05-05T09:45:27.735Z,13.12
2023-05-05T09:47:36.922Z,13.23
2023-05-05T09:49:38.960Z,13.37
2023-05-05T09:51:40.795Z,13.49
2023-05-05T09:53:42.547Z,13.64
2023-05-05T09:55:57.779Z,13.84
2023-05-05T09:58:29.745Z,13.97
2023-05-05T10:00:38.978Z,14.11
2023-05-05T10:02:40.951Z,14.22
2023-05-05T10:04:42.486Z,14.35
2023-05-05T10:06:47.381Z,14.42
2023-05-05T10:09:01.151Z,14.44
2023-05-05T10:11:07.325Z,14.44
2023-05-05T10:13:10.437Z,14.50
2023-05-05T10:15:12.168Z,14.59
2023-05-05T10:17:15.834Z,14.72
2023-05-05T10:19:21.904Z,14.86
2023-05-05T10:21:25.209Z,15.13
2023-05-05T10:23:41.655Z,15.39
2023-05-05T10:25:54.915Z,15.59
2023-05-05T10:27:59.862Z,15.78
2023-05-05T10:30:06.411Z,15.98
2023-05-05T10:32:46.651Z,16.17
2023-05-05T10:34:53.309Z,16.33
2023-05-05T10:36:57.341Z,16.29
2023-05-05T10:39:00.407Z,16.46
2023-05-05T10:41:02.240Z,16.50
2023-05-05T10:43:04.425Z,16.71
2023-05-05T10:45:07.278Z,16.92
2023-05-05T10:47:09.732Z,17.13
2023-05-05T10:49:20.280Z,17.34
2023-05-05T10:51:48.331Z,17.66
2023-05-05T10:54:08.877Z,18.00
2023-05-05T10:56:32.691Z,18.28
2023-05-05T10:58:46.802Z,18.55
2023-05-05T11:00:53.296Z,18.78
2023-05-05T11:03:17.373Z,18.87
2023-05-05T11:05:21.222Z,18.99
2023-05-05T11:07:23.677Z,19.23
2023-05-05T11:09:28.703Z,19.51
2023-05-05T11:12:01.651Z,19.63
2023-05-05T11:14:22.429Z,20.05
2023-05-05T11:16:43.496Z,20.41
2023-05-05T11:18:45.042Z,20.77
2023-05-05T11:20:52.456Z,20.98
2023-05-05T11:23:03.037Z,21.15
2023-05-05T11:25:42.099Z,21.05
2023-05-05T11:28:07.979Z,21.30
2023-05-05T11:30:10.990Z,21.54
2023-05-05T11:32:14.327Z,21.68
2023-05-05T11:34:28.259Z,21.95
2023-05-05T11:36:40.757Z,22.09
2023-05-05T11:39:11.424Z,22.28
2023-05-05T11:41:19.836Z,22.37
2023-05-05T11:43:21.342Z,22.71
2023-05-05T11:45:24.500Z,23.06
2023-05-05T11:47:27.962Z,23.28
2023-05-05T11:49:39.631Z,23.53
2023-05-05T11:51:41.266Z,23.68
2023-05-05T11:53:47.636Z,24.00
2023-05-05T11:55:49.152Z,24.17
2023-05-05T11:57:51.231Z,24.36
2023-05-05T12:00:02.662Z,24.11
2023-05-05T12:02:04.891Z,24.08
2023-05-05T12:04:07.053Z,23.94
2023-05-05T12:06:09.003Z,24.23
2023-05-05T12:08:10.621Z,24.37
2023-05-05T12:10:12.236Z,24.48
2023-05-05T12:12:14.636Z,24.55
2023-05-05T12:14:17.192Z,24.64
2023-05-05T12:16:19.856Z,24.69
2023-05-05T12:18:21.924Z,24.60
2023-05-05T12:20:31.845Z,24.33
2023-05-05T12:22:33.287Z,24.18
2023-05-05T12:24:35.119Z,24.11
2023-05-05T12:26:36.625Z,24.09
2023-05-05T12:28:47.897Z,24.24
2023-05-05T12:30:59.436Z,24.32
2023-05-05T12:33:06.608Z,24.35
2023-05-05T12:35:09.698Z,24.43
2023-05-05T12:37:11.443Z,24.52
2023-05-05T12:39:13.073Z,24.47
2023-05-05T12:41:19.717Z,24.35
2023-05-05T12:43:24.922Z,24.23
2023-05-05T12:45:26.603Z,23.84
2023-05-05T12:47:32.280Z,23.32
2023-05-05T12:49:52.712Z,23.25
2023-05-05T12:51:56.268Z,23.23
2023-05-05T12:54:09.781Z,23.26
2023-05-05T12:56:29.969Z,23.27
2023-05-05T12:58:48.567Z,23.36
2023-05-05T13:01:08.226Z,22.99
2023-05-05T13:03:20.141Z,22.94
2023-05-05T13:05:40.950Z,22.95
2023-05-05T13:07:52.023Z,23.01
2023-05-05T13:10:07.311Z,23.08
2023-05-05T13:12:12.116Z,23.09
2023-05-05T13:14:13.655Z,23.05
2023-05-05T13:16:15.207Z,23.05
2023-05-05T13:18:16.777Z,23.07
2023-05-05T13:20:18.200Z,23.07
2023-05-05T13:22:19.874Z,22.96
2023-05-05T13:24:28.581Z,22.72
2023-05-05T13:26:33.121Z,22.60
2023-05-05T13:28:34.609Z,22.54
2023-05-05T13:30:36.151Z,22.50
2023-05-05T13:32:37.592Z,22.48
2023-05-05T13:34:39.418Z,22.51
2023-05-05T13:36:41.058Z,22.47
2023-05-05T13:38:42.497Z,22.43
2023-05-05T13:40:43.949Z,22.46
2023-05-05T13:42:45.524Z,22.46
2023-05-05T13:44:47.035Z,22.49
2023-05-05T13:46:48.569Z,22.52
2023-05-05T13:48:52.485Z,22.56
2023-05-05T13:50:57.619Z,22.61
2023-05-05T13:52:59.245Z,22.59
2023-05-05T13:55:00.992Z,22.54
2023-05-05T13:57:03.413Z,22.51
2023-05-05T13:59:04.889Z,22.46
2023-05-05T14:01:06.491Z,22.34
2023-05-05T14:03:07.981Z,22.24
2023-05-05T14:05:09.887Z,22.13
2023-05-05T14:07:11.857Z,22.04
2023-05-05T14:09:13.350Z,21.97
2023-05-05T14:11:17.058Z,21.94
2023-05-05T14:13:18.676Z,21.79
2023-05-05T14:15:20.325Z,21.68
2023-05-05T14:17:21.876Z,21.55
2023-05-05T14:19:23.340Z,21.53
2023-05-05T14:21:24.793Z,21.51
2023-05-05T14:23:26.232Z,21.43
2023-05-05T14:25:27.717Z,21.44
2023-05-05T14:27:29.144Z,21.47
2023-05-05T14:29:30.722Z,21.53
2023-05-05T14:31:32.231Z,21.52
2023-05-05T14:33:33.782Z,21.52
2023-05-05T14:35:35.269Z,21.54
2023-05-05T14:37:36.745Z,21.53
2023-05-05T14:39:38.166Z,21.52
2023-05-05T14:41:39.848Z,21.50
2023-05-05T14:43:41.305Z,21.45
2023-05-05T14:45:44.181Z,21.42
2023-05-05T14:47:45.910Z,21.42
2023-05-05T14:49:47.416Z,21.42
2023-05-05T14:51:48.958Z,21.41
2023-05-05T14:53:50.588Z,21.40
2023-05-05T14:55:52.122Z,21.39
2023-05-05T14:57:53.532Z,21.37
2023-05-05T14:59:54.948Z,21.24
2023-05-05T15:01:57.136Z,21.22
2023-05-05T15:03:58.841Z,21.17
2023-05-05T15:06:00.409Z,21.14
2023-05-05T15:08:01.945Z,21.16
2023-05-05T15:10:04.471Z,21.21
2023-05-05T15:12:06.499Z,21.26
2023-05-05T15:14:07.926Z,21.24
2023-05-05T15:16:09.435Z,21.24
2023-05-05T15:18:11.547Z,21.20
2023-05-05T15:20:13.193Z,21.12
2023-05-05T15:22:14.635Z,21.05
2023-05-05T15:24:16.044Z,20.96
2023-05-05T15:26:17.578Z,20.85
2023-05-05T15:28:19.082Z,20.80
2023-05-05T15:30:20.584Z,20.74
2023-05-05T15:32:22.256Z,20.65
2023-05-05T15:34:23.783Z,20.57
2023-05-05T15:36:25.215Z,20.50
2023-05-05T15:38:28.953Z,20.46
2023-05-05T15:40:30.420Z,20.36
2023-05-05T15:42:32.678Z,20.28
2023-05-05T15:44:34.165Z,20.18
2023-05-05T15:46:35.644Z,20.10
2023-05-05T15:48:37.278Z,20.03
2023-05-05T15:50:38.722Z,19.97
2023-05-05T15:52:40.241Z,19.89
2023-05-05T15:54:41.703Z,19.79
2023-05-05T15:56:43.148Z,19.70
2023-05-05T15:58:44.560Z,19.64
2023-05-05T16:00:46.095Z,19.59
2023-05-05T16:02:47.574Z,19.53
2023-05-05T16:04:49.121Z,19.46
2023-05-05T16:06:50.587Z,19.33
2023-05-05T16:08:52.073Z,19.25
2023-05-05T16:10:53.534Z,19.24
2023-05-05T16:12:54.993Z,19.21
2023-05-05T16:14:56.647Z,19.13
2023-05-05T16:16:58.747Z,18.93
2023-05-05T16:19:00.313Z,18.77
2023-05-05T16:21:02.623Z,18.67
2023-05-05T16:23:04.162Z,18.67
2023-05-05T16:25:06.469Z,18.60
2023-05-05T16:27:08.276Z,18.53
2023-05-05T16:29:09.794Z,18.46
2023-05-05T16:31:11.446Z,18.37
2023-05-05T16:33:13.040Z,18.18
2023-05-05T16:35:14.546Z,18.07
2023-05-05T16:37:16.109Z,17.97
2023-05-05T16:39:17.536Z,17.79
2023-05-05T16:41:18.979Z,17.40
2023-05-05T16:43:20.495Z,16.94
2023-05-05T16:45:21.968Z,16.53
2023-05-05T16:47:23.512Z,16.26
2023-05-05T16:49:25.022Z,15.99
2023-05-05T16:51:26.858Z,15.93
2023-05-05T16:53:28.272Z,16.01
2023-05-05T16:55:29.834Z,15.95
2023-05-05T16:57:31.678Z,15.72
2023-05-05T16:59:33.094Z,15.45
2023-05-05T17:01:35.003Z,15.33
2023-05-05T17:03:36.543Z,15.39
2023-05-05T17:05:38.198Z,15.47
2023-05-05T17:07:39.764Z,15.51
2023-05-05T17:09:41.192Z,15.49
2023-05-05T17:11:42.672Z,15.52
2023-05-05T17:13:44.110Z,15.59
2023-05-05T17:15:45.635Z,15.63
2023-05-05T17:17:47.200Z,15.68
2023-05-05T17:19:48.618Z,15.69
2023-05-05T17:21:50.155Z,15.61
2023-05-05T17:23:51.710Z,15.48
2023-05-05T17:25:53.176Z,15.35
2023-05-05T17:27:55.493Z,15.26
2023-05-05T17:29:56.960Z,15.05
2023-05-05T17:31:58.422Z,14.98
2023-05-05T17:33:59.973Z,14.85
2023-05-05T17:36:01.496Z,14.78
2023-05-05T17:38:03.024Z,14.82
2023-05-05T17:40:05.350Z,14.78
2023-05-05T17:42:06.848Z,14.73
2023-05-05T17:44:08.391Z,14.62
2023-05-05T17:46:09.869Z,14.58
2023-05-05T17:48:11.300Z,14.53
2023-05-05T17:50:12.750Z,14.57
2023-05-05T17:52:14.683Z,14.59
2023-05-05T17:54:16.319Z,14.51
2023-05-05T17:56:17.834Z,14.42
2023-05-05T17:58:19.268Z,14.38
2023-05-05T18:00:21.154Z,14.38
2023-05-05T18:02:23.970Z,14.24
2023-05-05T18:04:25.719Z,14.09
2023-05-05T18:06:28.063Z,14.05
2023-05-05T18:08:29.488Z,13.94
2023-05-05T18:10:31.057Z,13.89
2023-05-05T18:12:32.534Z,13.93
2023-05-05T18:14:33.965Z,13.98
2023-05-05T18:16:36.026Z,14.01
2023-05-05T18:18:37.598Z,14.12
2023-05-05T18:20:39.128Z,14.21
2023-05-05T18:22:40.610Z,14.29
2023-05-05T18:24:42.057Z,14.35
2023-05-05T18:26:43.516Z,14.39
2023-05-05T18:28:44.938Z,14.41
2023-05-05T18:30:46.339Z,14.35
2023-05-05T18:32:48.705Z,14.29
2023-05-05T18:34:50.277Z,14.23
2023-05-05T18:36:54.252Z,14.20
2023-05-05T18:38:56.319Z,14.18
2023-05-05T18:40:57.880Z,14.17
2023-05-05T18:42:59.372Z,14.17
2023-05-05T18:45:01.548Z,14.19
2023-05-05T18:47:03.162Z,14.20
2023-05-05T18:49:04.618Z,14.21
2023-05-05T18:51:07.432Z,14.21
2023-05-05T18:53:10.755Z,14.21
2023-05-05T18:55:12.479Z,14.20
2023-05-05T18:57:13.993Z,14.20
2023-05-05T18:59:15.455Z,14.19
2023-05-05T19:01:17.064Z,14.18
2023-05-05T19:03:19.741Z,14.16
2023-05-05T19:05:21.436Z,14.11
2023-05-05T19:07:34.312Z,14.08
2023-05-05T19:09:37.120Z,14.04
2023-05-05T19:11:41.736Z,14.00
2023-05-05T19:13:43.252Z,13.98
2023-05-05T19:15:44.723Z,13.95
2023-05-05T19:17:47.397Z,13.95
2023-05-05T19:19:49.009Z,13.96
2023-05-05T19:21:50.759Z,13.98
2023-05-05T19:23:52.302Z,13.99
2023-05-05T19:25:54.293Z,14.02
2023-05-05T19:27:55.716Z,14.02
2023-05-05T19:29:57.133Z,14.03
2023-05-05T19:31:58.643Z,14.03
2023-05-05T19:34:02.294Z,13.97
2023-05-05T19:36:03.956Z,13.86
2023-05-05T19:38:05.406Z,13.73
2023-05-05T19:40:07.568Z,13.67
2023-05-05T19:42:09.632Z,13.65
2023-05-05T19:44:11.067Z,13.64
2023-05-05T19:46:13.640Z,13.64
2023-05-05T19:48:15.719Z,13.63
2023-05-05T19:50:17.513Z,13.62
2023-05-05T19:52:22.453Z,13.63
2023-05-05T19:54:24.651Z,13.63
2023-05-05T19:56:26.219Z,13.61
2023-05-05T19:58:27.687Z,13.57
2023-05-05T20:00:29.231Z,13.53
2023-05-05T20:02:31.442Z,13.50
2023-05-05T20:04:33.109Z,13.47
2023-05-05T20:06:35.683Z,13.46
2023-05-05T20:08:37.130Z,13.46
2023-05-05T20:10:38.708Z,13.47
2023-05-05T20:12:47.481Z,13.42
2023-05-05T20:14:49.370Z,13.38
2023-05-05T20:16:50.927Z,13.39
2023-05-05T20:18:52.590Z,13.42
2023-05-05T20:20:54.053Z,13.42
2023-05-05T20:22:55.522Z,13.43
2023-05-05T20:24:58.145Z,13.43
2023-05-05T20:26:59.578Z,13.43
2023-05-05T20:29:00.992Z,13.43
2023-05-05T20:31:02.511Z,13.42
2023-05-05T20:33:04.216Z,13.42
2023-05-05T20:35:06.201Z,13.41
2023-05-05T20:37:07.776Z,13.40
2023-05-05T20:39:15.296Z,13.39
2023-05-05T20:41:16.828Z,13.33
2023-05-05T20:43:19.154Z,13.33
2023-05-05T20:45:20.602Z,13.29
2023-05-05T20:47:22.109Z,13.27
2023-05-05T20:49:23.602Z,13.28
2023-05-05T20:51:29.157Z,13.27
2023-05-05T20:53:30.674Z,13.30
2023-05-05T20:55:32.484Z,13.31
2023-05-05T20:57:33.982Z,13.31
2023-05-05T20:59:35.508Z,13.31
2023-05-05T21:01:36.964Z,13.35
2023-05-05T21:03:38.413Z,13.36
2023-05-05T21:05:41.316Z,13.39
2023-05-05T21:07:42.789Z,13.41
2023-05-05T21:09:47.707Z,13.44
2023-05-05T21:11:49.120Z,13.45
2023-05-05T21:13:50.727Z,13.46
2023-05-05T21:15:52.164Z,13.45
2023-05-05T21:17:53.803Z,13.47
2023-05-05T21:19:56.817Z,13.47
2023-05-05T21:21:59.225Z,13.47
2023-05-05T21:24:00.840Z,13.48
2023-05-05T21:26:02.412Z,13.50
2023-05-05T21:28:04.145Z,13.51
2023-05-05T21:30:08.516Z,13.52
2023-05-05T21:32:11.821Z,13.52
2023-05-05T21:34:13.367Z,13.55
2023-05-05T21:36:17.380Z,13.54
2023-05-05T21:38:18.850Z,13.54
2023-05-05T21:40:20.353Z,13.54
2023-05-05T21:42:21.819Z,13.54
2023-05-05T21:44:23.468Z,13.55
2023-05-05T21:46:25.003Z,13.55
2023-05-05T21:48:26.769Z,13.55
2023-05-05T21:50:29.527Z,13.56
2023-05-05T21:52:31.098Z,13.55
2023-05-05T21:54:32.573Z,13.55
2023-05-05T21:56:34.688Z,13.55
2023-05-05T21:58:36.237Z,13.52
2023-05-05T22:00:37.793Z,13.50
2023-05-05T22:02:39.348Z,13.50
2023-05-05T22:04:40.843Z,13.49
2023-05-05T22:06:42.262Z,13.51
2023-05-05T22:08:43.986Z,13.49
2023-05-05T22:10:45.527Z,13.49
2023-05-05T22:12:48.046Z,13.48
2023-05-05T22:14:49.538Z,13.47
2023-05-05T22:16:51.105Z,13.48
2023-05-05T22:18:52.546Z,13.49
2023-05-05T22:20:54.000Z,13.47
2023-05-05T22:22:55.499Z,13.43
2023-05-05T22:24:57.432Z,13.42
2023-05-05T22:26:58.929Z,13.41
2023-05-05T22:29:00.541Z,13.41
2023-05-05T22:31:02.086Z,13.41
2023-05-05T22:33:03.786Z,13.41
2023-05-05T22:35:06.039Z,13.40
2023-05-05T22:37:07.555Z,13.40
2023-05-05T22:39:09.034Z,13.40
2023-05-05T22:41:10.697Z,13.37
2023-05-05T22:43:12.226Z,13.37
2023-05-05T22:45:13.855Z,13.34
2023-05-05T22:47:15.359Z,13.33
2023-05-05T22:49:16.896Z,13.30
2023-05-05T22:51:18.879Z,13.30
2023-05-05T22:53:20.439Z,13.30
2023-05-05T22:55:21.897Z,13.27
2023-05-05T22:57:23.484Z,13.25
2023-05-05T22:59:24.980Z,13.23
2023-05-05T23:01:26.561Z,13.19
2023-05-05T23:03:28.083Z,13.15
2023-05-05T23:05:29.560Z,13.11
2023-05-05T23:07:30.987Z,13.08
2023-05-05T23:09:32.401Z,13.05
2023-05-05T23:11:34.028Z,12.99
2023-05-05T23:13:35.518Z,12.97
2023-05-05T23:15:37.000Z,12.96
2023-05-05T23:17:38.455Z,12.94
2023-05-05T23:19:39.916Z,12.94
2023-05-05T23:21:52.112Z,12.89
2023-05-05T23:23:55.391Z,12.87
2023-05-05T23:25:56.824Z,12.89
2023-05-05T23:27:58.250Z,12.91
2023-05-05T23:29:59.728Z,12.86
2023-05-05T23:32:01.212Z,12.85
2023-05-05T23:34:02.637Z,12.87
2023-05-05T23:36:04.483Z,12.86
2023-05-05T23:38:06.634Z,12.88
2023-05-05T23:40:08.856Z,12.85
2023-05-05T23:42:10.298Z,12.82
2023-05-05T23:44:11.751Z,12.83
2023-05-05T23:46:13.287Z,12.79
2023-05-05T23:48:14.731Z,12.77
2023-05-05T23:50:16.184Z,12.79
2023-05-05T23:52:17.768Z,12.79
2023-05-05T23:54:19.226Z,12.80
2023-05-05T23:56:20.635Z,12.81
2023-05-05T23:58:22.073Z,12.78
